Latest Weather Observations for Combienbar

IDV60801

Issued at 10:02 pm EDT Saturday 20 December 2014 (issued every 30 minutes, with the page automatically refreshed every 10 minutes)

About weather observations | Map of weather stations | Latest weather observations for VIC | Other Formats
Station Details ID: 084143 Name: COMBIENBAR AWS Lat: -37.34 Lon: 149.02 Height: 640.0 m
Data from the previous 72 hours. | See also: Recent months at Combienbar
Date/Time
EDT
Temp
°C
App
Temp
°C
Dew
Point
Rel
Hum
%
Delta-T
°C
Wind Press
QNH
hPa
Press
MSL
hPa
Rain
since 9 am
mm
Dir
 
Spd
km/h
Gust
km/h
Spd
kts
Gust
kts
20/10:00pm 12.7 12.9 10.6 87 1.1 CALM 0 0 0 0 1019.4 1017.4 0.0
20/09:30pm 13.1 13.3 10.6 85 1.3 CALM 0 0 0 0 1019.2 1017.2 0.0
20/09:00pm 13.4 13.6 10.4 82 1.6 CALM 0 0 0 0 1019.0 1017.0 0.0
20/08:30pm 13.7 13.9 10.5 81 1.7 CALM 0 0 0 0 1018.9 1016.9 0.0
20/08:00pm 14.5 14.7 10.7 78 2.1 CALM 0 0 0 0 1018.7 1016.7 0.0
20/07:30pm 15.5 15.5 11.3 76 2.3 SSW 2 6 1 3 1018.5 1016.5 0.0
20/07:00pm 16.3 16.8 11.5 73 2.7 CALM 0 0 0 0 1018.3 1016.2 0.0
20/06:30pm 17.5 17.9 11.3 67 3.5 CALM 0 4 0 2 1018.0 1015.9 0.0
20/06:00pm 18.9 19.5 11.9 64 4.0 CALM 0 4 0 2 1017.7 1015.7 0.0
20/05:30pm 19.4 19.5 11.4 60 4.5 SW 2 6 1 3 1017.6 1015.6 0.0
20/05:00pm 19.6 20.0 12.4 63 4.1 SSW 2 6 1 3 1017.7 1015.7 0.0
20/04:30pm 19.7 19.9 11.7 60 4.6 SW 2 6 1 3 1017.6 1015.6 0.0
20/04:00pm 20.0 20.2 11.8 59 4.7 SSW 2 6 1 3 1017.7 1015.7 0.0
20/03:30pm 20.6 20.9 12.1 58 4.9 SW 2 6 1 3 1018.0 1015.9 0.0
20/03:00pm 20.5 20.7 11.7 57 5.0 SSW 2 6 1 3 1018.1 1016.0 0.0
20/02:30pm 19.7 19.6 10.7 56 5.0 SW 2 6 1 3 1018.1 1016.0 0.0
20/02:00pm 19.9 19.9 11.1 57 5.0 SW 2 4 1 2 1018.0 1015.9 0.0
20/01:30pm 19.7 19.9 10.4 55 5.2 CALM 0 4 0 2 1018.2 1016.1 0.0
20/01:00pm 18.8 18.4 9.6 55 5.0 SW 2 6 1 3 1018.4 1016.4 0.0
20/12:30pm 18.2 17.8 9.8 58 4.6 SW 2 6 1 3 1018.6 1016.6 0.0
20/12:00pm 18.1 17.6 9.2 56 4.8 SSW 2 6 1 3 1018.6 1016.6 0.0
20/11:30am 16.9 16.2 8.6 58 4.4 SSW 2 6 1 3 1018.5 1016.5 0.0
20/11:00am 15.4 15.0 8.4 63 3.7 CALM 0 4 0 2 1018.5 1016.5 0.0
20/10:30am 14.8 14.5 8.5 66 3.3 CALM 0 2 0 1 1018.4 1016.4 0.0
20/10:00am 13.8 13.4 8.4 70 2.8 CALM 0 4 0 2 1018.5 1016.5 0.0
20/09:30am 12.3 11.8 7.8 74 2.3 CALM 0 2 0 1 1018.7 1016.7 0.0
20/09:00am 11.9 11.4 8.0 77 2.0 CALM 0 2 0 1 1018.7 1016.7 0.0
20/08:30am 10.8 10.0 6.7 76 2.0 CALM 0 4 0 2 1018.6 1016.6 0.0
20/08:00am 11.4 10.9 7.9 79 1.8 CALM 0 4 0 2 1018.4 1016.4 0.0
20/07:30am 11.2 10.6 7.3 77 1.9 CALM 0 4 0 2 1018.3 1016.2 0.0
20/07:00am 10.7 10.2 7.9 83 1.4 CALM 0 0 0 0 1018.2 1016.1 0.0
20/06:30am 9.3 8.4 6.2 81 1.5 CALM 0 4 0 2 1017.7 1015.7 0.0
20/06:00am 8.3 7.3 5.6 83 1.3 CALM 0 0 0 0 1017.6 1015.6 0.0
20/05:30am 8.7 7.6 5.3 79 1.6 CALM 0 0 0 0 1017.5 1015.5 0.0
20/05:00am 8.8 7.8 5.4 79 1.6 CALM 0 0 0 0 1017.6 1015.6 0.0
20/04:30am 8.9 7.9 5.5 79 1.6 CALM 0 0 0 0 1017.4 1015.4 0.0
20/04:00am 8.8 7.8 5.4 79 1.6 CALM 0 0 0 0 1017.4 1015.4 0.0
20/03:30am 8.6 7.5 5.2 79 1.6 CALM 0 2 0 1 1017.6 1015.6 0.0
20/03:00am 8.6 7.6 5.5 81 1.5 CALM 0 0 0 0 1017.7 1015.7 0.0
20/02:30am 9.3 7.6 6.0 80 1.6 SW 4 6 2 3 1018.0 1015.9 0.0
20/02:00am 9.2 7.5 6.1 81 1.5 SW 4 9 2 5 1018.1 1016.0 0.0
20/01:30am 9.1 7.5 6.4 83 1.3 SW 4 9 2 5 1018.4 1016.4 0.0
20/01:00am 8.3 7.4 6.1 86 1.0 CALM 0 0 0 0 1018.6 1016.6 0.0
20/12:30am 8.8 7.3 6.6 86 1.1 SW 4 7 2 4 1018.9 1016.9 0.0
20/12:00am 8.9 8.1 6.7 86 1.1 CALM 0 0 0 0 1019.2 1017.2 0.0
 
Date/Time
EDT
Temp
°C
App
Temp
°C
Dew
Point
Rel
Hum
%
Delta-T
°C
Wind Press
QNH
hPa
Press
MSL
hPa
Rain
since 9 am
mm
Dir
 
Spd
km/h
Gust
km/h
Spd
kts
Gust
kts
19/11:30pm 9.6 8.5 6.9 83 1.3 SSW 2 6 1 3 1019.4 1017.4 0.0
19/11:00pm 9.6 8.5 6.7 82 1.4 SW 2 6 1 3 1019.4 1017.4 0.0
19/10:30pm 9.6 8.8 6.7 82 1.4 CALM 0 4 0 2 1019.3 1017.3 0.0
19/10:00pm 9.6 8.8 6.5 81 1.5 CALM 0 4 0 2 1019.3 1017.3 0.0
19/09:30pm 9.6 8.5 6.9 83 1.3 SSW 2 4 1 2 1019.2 1017.2 0.0
19/09:00pm 9.6 9.0 7.2 85 1.2 CALM 0 4 0 2 1019.0 1017.0 0.0
19/08:30pm 9.8 8.8 7.4 85 1.2 SSW 2 6 1 3 1018.9 1016.9 0.0
19/08:00pm 10.1 8.8 7.7 85 1.2 SSW 4 6 2 3 1018.6 1016.6 0.0
19/07:30pm 10.5 9.3 7.9 84 1.3 SW 4 7 2 4 1018.1 1016.0 0.0
19/07:00pm 10.9 9.7 8.0 82 1.5 SW 4 9 2 5 1017.6 1015.6 0.0
19/06:30pm 11.7 10.6 8.4 80 1.7 SSW 4 7 2 4 1017.2 1015.2 0.0
19/06:00pm 12.2 11.0 7.9 75 2.2 SSW 4 6 2 3 1016.7 1014.6 0.0
19/05:30pm 12.6 11.6 8.7 77 2.0 SSW 4 7 2 4 1016.4 1014.3 0.0
19/05:00pm 12.2 11.0 7.9 75 2.2 SSW 4 7 2 4 1016.4 1014.3 0.0
19/04:30pm 15.0 14.1 9.4 69 3.0 SSW 4 9 2 5 1016.3 1014.2 0.0
19/04:00pm 12.9 11.9 8.8 76 2.1 SSW 4 19 2 10 1016.5 1014.4 0.0
19/03:30pm 12.7 11.4 7.6 71 2.6 SSW 4 9 2 5 1016.2 1014.1 0.0
19/03:00pm 13.9 13.3 8.9 72 2.6 SW 2 7 1 4 1015.9 1013.9 0.0
19/02:30pm 13.3 12.5 8.0 70 2.7 SSW 2 11 1 6 1015.8 1013.8 0.0
19/02:00pm 11.6 10.4 6.5 71 2.5 SW 2 7 1 4 1015.9 1013.9 0.0
19/01:30pm 12.7 10.6 5.8 63 3.4 SSW 6 11 3 6 1015.7 1013.7 0.0
19/01:00pm 11.5 9.2 5.6 67 2.8 SW 7 15 4 8 1015.7 1013.7 0.0
19/12:30pm 14.1 13.1 7.4 64 3.4 WSW 2 6 1 3 1015.6 1013.6 0.0
19/12:00pm 11.5 9.8 6.0 69 2.7 SSW 4 7 2 4 1015.4 1013.3 0.0
19/11:30am 13.6 12.0 6.2 61 3.7 SW 4 11 2 6 1014.9 1012.8 0.0
19/11:00am 13.7 11.8 6.6 62 3.5 SW 6 15 3 8 1014.7 1012.6 0.0
19/10:30am 12.6 10.5 6.0 64 3.2 SSW 6 13 3 7 1014.8 1012.7 0.0
19/10:00am 12.3 10.6 6.1 66 3.0 SW 4 9 2 5 1015.0 1012.9 0.0
19/09:30am 11.3 8.9 5.4 67 2.8 SW 7 19 4 10 1014.9 1012.8 0.0
19/09:00am 10.4 8.1 5.6 72 2.3 SW 7 17 4 9 1014.9 1012.8 2.4
19/08:30am 10.1 8.1 6.1 76 1.9 SW 6 13 3 7 1014.4 1012.4 2.4
19/08:00am 9.9 7.5 5.3 73 2.2 SW 7 17 4 9 1014.0 1011.9 2.4
19/07:30am 9.5 7.3 5.5 76 1.9 SSW 6 13 3 7 1013.8 1011.7 2.4
19/07:00am 9.5 7.7 5.5 76 1.9 SW 4 13 2 7 1013.6 1011.5 2.4
19/06:30am 8.8 6.3 5.0 77 1.8 SW 7 22 4 12 1013.2 1011.1 2.4
19/06:00am 8.2 6.8 5.3 82 1.3 SW 2 7 1 4 1012.6 1010.5 2.4
19/05:30am 8.8 7.0 5.5 80 1.5 SSW 4 13 2 7 1012.4 1010.3 2.4
19/05:00am 8.8 7.0 5.4 79 1.6 SSW 4 17 2 9 1012.0 1009.9 2.4
19/04:30am 8.5 7.1 5.6 82 1.4 SSW 2 11 1 6 1011.6 1009.5 2.4
19/04:00am 8.8 7.1 5.7 81 1.5 SW 4 20 2 11 1011.2 1009.0 2.4
19/03:30am 8.9 6.7 6.2 83 1.3 SW 7 20 4 11 1011.0 1008.9 2.4
19/03:00am 9.1 7.1 6.9 86 1.1 SSW 7 20 4 11 1011.0 1008.9 2.4
19/02:30am 9.1 7.3 7.1 87 1.0 SW 6 15 3 8 1011.3 1009.1 2.4
19/02:00am 9.1 6.2 6.4 83 1.3 SW 11 17 6 9 1011.3 1009.1 2.4
19/01:30am 8.8 6.4 6.8 87 1.0 SW 9 13 5 7 1011.4 1009.2 2.4
19/01:00am 8.7 6.0 7.2 90 0.7 SW 11 19 6 10 1011.5 1009.4 2.4
19/12:30am 8.8 6.2 7.9 94 0.4 SW 11 24 6 13 1011.2 1009.0 2.4
19/12:00am 9.9 8.6 9.3 96 0.3 SW 6 9 3 5 1011.6 1009.5 0.6
 
Date/Time
EDT
Temp
°C
App
Temp
°C
Dew
Point
Rel
Hum
%
Delta-T
°C
Wind Press
QNH
hPa
Press
MSL
hPa
Rain
since 9 am
mm
Dir
 
Spd
km/h
Gust
km/h
Spd
kts
Gust
kts
18/11:30pm 9.9 9.8 9.4 97 0.3 CALM 0 4 0 2 1011.6 1009.5 0.4
18/11:00pm 10.0 9.1 9.4 96 0.3 SW 4 9 2 5 1011.5 1009.4 0.4
18/10:30pm 10.4 9.6 9.6 95 0.4 SSW 4 7 2 4 1011.7 1009.6 0.4
18/10:00pm 10.9 10.1 9.8 93 0.6 SSW 4 7 2 4 1012.1 1010.0 0.4
18/09:30pm 10.8 9.6 9.6 92 0.6 SSW 6 11 3 6 1011.4 1009.2 0.4
18/09:00pm 12.0 11.2 9.7 86 1.2 SW 4 6 2 3 1011.7 1009.6 0.0
18/08:30pm 12.6 12.1 10.7 88 1.0 SSW 4 7 2 4 1010.5 1008.4 0.0
18/08:00pm 12.4 11.4 10.3 87 1.1 SSW 6 9 3 5 1009.9 1007.7 0.0
18/07:30pm 15.1 13.4 7.4 60 3.9 SW 6 11 3 6 1008.8 1006.7 0.0
18/07:00pm 16.6 14.7 7.5 55 4.7 SW 7 13 4 7 1007.2 1005.0 0.0
18/06:30pm 18.8 19.2 11.4 62 4.2 CALM 0 0 0 0 1006.3 1004.1 0.0
18/06:00pm 18.7 19.0 11.0 61 4.3 CALM 0 0 0 0 1006.4 1004.2 0.0
18/05:30pm 19.6 19.1 10.6 56 5.0 E 4 7 2 4 1006.0 1003.9 0.0
18/05:00pm 21.1 21.8 12.3 57 5.1 CALM 0 0 0 0 1005.8 1003.6 0.0
18/04:30pm 21.7 22.2 11.7 53 5.8 CALM 0 0 0 0 1005.9 1003.8 0.0
18/04:00pm 21.6 21.9 11.0 51 6.0 CALM 0 0 0 0 1006.2 1004.0 0.0
18/03:30pm 21.0 21.1 10.2 50 6.0 CALM 0 2 0 1 1005.9 1003.8 0.0
18/03:00pm 23.6 22.4 8.1 37 8.5 ESE 4 9 2 5 1005.8 1003.6 0.0
18/02:30pm 21.6 21.3 8.5 43 7.1 CALM 0 4 0 2 1005.8 1003.6 0.0
18/02:00pm 23.7 22.8 7.8 36 8.7 S 2 7 1 4 1006.2 1004.0 0.0
18/01:30pm 23.0 22.6 8.3 39 8.0 CALM 0 6 0 3 1006.5 1004.3 0.0
18/01:00pm 22.6 21.6 7.2 37 8.2 SW 2 7 1 4 1006.8 1004.6 0.0
18/12:30pm 22.6 21.8 8.3 40 7.8 SSE 2 6 1 3 1007.1 1004.9 0.0
18/12:00pm 21.8 21.2 7.2 39 7.8 CALM 0 4 0 2 1007.5 1005.4 0.0
18/11:30am 21.3 20.3 7.5 41 7.4 WNW 2 7 1 4 1007.5 1005.4 0.0
18/11:00am 20.4 19.6 6.7 41 7.2 CALM 0 6 0 3 1008.0 1005.8 0.0
18/10:30am 19.6 18.0 4.5 37 7.5 SW 2 9 1 5 1008.2 1006.0 0.0
18/10:00am 19.1 17.2 6.6 44 6.5 WNW 6 15 3 8 1008.3 1006.1 0.0
18/09:30am 18.1 16.8 7.5 50 5.5 NW 4 13 2 7 1008.5 1006.3 0.0
18/09:00am 18.5 17.9 11.8 65 3.8 NE 6 7 3 4 1008.6 1006.4 0.0
18/08:30am 17.4 17.1 11.4 68 3.4 NNE 4 7 2 4 1008.8 1006.7 0.0
18/08:00am 15.9 15.1 10.9 72 2.8 NE 6 11 3 6 1008.8 1006.7 0.0
18/07:30am 14.0 12.9 10.0 77 2.1 NNE 6 9 3 5 1008.8 1006.7 0.0
18/07:00am 12.6 11.7 9.4 81 1.7 NNE 4 9 2 5 1008.8 1006.7 0.0
18/06:30am 10.6 9.9 8.4 86 1.1 N 2 7 1 4 1008.7 1006.6 0.0
18/06:00am 10.4 8.7 8.5 88 1.0 NNE 7 13 4 7 1008.4 1006.2 0.0
18/05:30am 10.2 8.6 8.0 86 1.1 NNE 6 13 3 7 1008.1 1005.9 0.0
18/05:00am 10.2 9.4 8.0 86 1.1 N 2 9 1 5 1008.2 1006.0 0.0
18/04:30am 10.0 8.2 8.1 88 1.0 NNE 7 19 4 10 1008.2 1006.0 0.0
18/04:00am 9.6 7.7 7.7 88 0.9 NNE 7 11 4 6 1008.3 1006.1 0.0
18/03:30am 10.3 8.6 7.7 84 1.3 NNE 6 7 3 4 1008.5 1006.3 0.0
18/03:00am 10.6 9.0 7.8 83 1.4 NNE 6 11 3 6 1008.7 1006.6 0.0
18/02:30am 10.5 9.7 8.1 85 1.2 NNE 2 6 1 3 1009.2 1007.1 0.0
18/02:00am 10.4 9.6 8.2 86 1.1 NNE 2 7 1 4 1009.6 1007.4 0.0
18/01:30am 10.3 9.1 7.9 85 1.2 NNE 4 6 2 3 1009.9 1007.7 0.0
18/01:00am 10.2 9.0 8.0 86 1.1 NNE 4 6 2 3 1010.4 1008.3 0.0
18/12:30am 10.1 8.5 8.0 87 1.1 NNE 6 7 3 4 1010.8 1008.7 0.0
18/12:00am 10.4 9.6 8.0 85 1.2 NNE 2 4 1 2 1011.3 1009.1 0.0
 
Date/Time
EDT
Temp
°C
App
Temp
°C
Dew
Point
Rel
Hum
%
Delta-T
°C
Wind Press
QNH
hPa
Press
MSL
hPa
Rain
since 9 am
mm
Dir
 
Spd
km/h
Gust
km/h
Spd
kts
Gust
kts
17/11:30pm 10.8 10.3 7.7 81 1.6 CALM 0 4 0 2 1011.5 1009.4 0.0
17/11:00pm 10.9 10.3 7.6 80 1.7 CALM 0 4 0 2 1011.7 1009.6 0.0
17/10:30pm 10.9 10.3 7.6 80 1.6 CALM 0 0 0 0 1011.8 1009.7 0.0

Other Formats:

Comma delimited format used in spreadsheet applications
http://www.bom.gov.au/fwo/IDV60801/IDV60801.94914.axf

JavaScript Object Notation format (JSON) in row-major order
http://www.bom.gov.au/fwo/IDV60801/IDV60801.94914.json